sensor_id;sensor_type;location;lat;lon;timestamp;P1;durP1;ratioP1;P2;durP2;ratioP2
36829;SDS011;22767;47.328;9.640;2022-08-23T00:00:36;5.82;;;3.15;;
36829;SDS011;22767;47.328;9.640;2022-08-23T00:03:22;3.42;;;3.13;;
36829;SDS011;22767;47.328;9.640;2022-08-23T00:06:09;4.18;;;3.05;;
36829;SDS011;22767;47.328;9.640;2022-08-23T00:08:56;4.93;;;3.38;;
36829;SDS011;22767;47.328;9.640;2022-08-23T00:11:44;5.40;;;3.45;;
36829;SDS011;22767;47.328;9.640;2022-08-23T00:14:32;3.80;;;3.08;;
36829;SDS011;22767;47.328;9.640;2022-08-23T00:17:19;4.60;;;3.30;;
36829;SDS011;22767;47.328;9.640;2022-08-23T00:20:06;3.88;;;3.00;;
36829;SDS011;22767;47.328;9.640;2022-08-23T00:22:53;4.05;;;3.30;;
36829;SDS011;22767;47.328;9.640;2022-08-23T00:25:39;3.58;;;3.10;;
36829;SDS011;22767;47.328;9.640;2022-08-23T00:28:26;3.17;;;2.92;;
36829;SDS011;22767;47.328;9.640;2022-08-23T00:31:12;4.05;;;3.20;;
36829;SDS011;22767;47.328;9.640;2022-08-23T00:33:58;4.65;;;3.75;;
36829;SDS011;22767;47.328;9.640;2022-08-23T00:36:45;3.17;;;2.88;;
36829;SDS011;22767;47.328;9.640;2022-08-23T00:39:32;5.00;;;3.28;;
36829;SDS011;22767;47.328;9.640;2022-08-23T00:45:31;4.82;;;3.65;;
36829;SDS011;22767;47.328;9.640;2022-08-23T00:48:38;3.67;;;3.38;;
36829;SDS011;22767;47.328;9.640;2022-08-23T00:54:14;3.65;;;3.30;;
36829;SDS011;22767;47.328;9.640;2022-08-23T00:57:03;3.67;;;3.38;;
36829;SDS011;22767;47.328;9.640;2022-08-23T00:59:50;3.67;;;3.05;;
36829;SDS011;22767;47.328;9.640;2022-08-23T01:02:36;3.97;;;3.15;;
36829;SDS011;22767;47.328;9.640;2022-08-23T01:05:24;3.53;;;3.22;;
36829;SDS011;22767;47.328;9.640;2022-08-23T01:08:13;4.57;;;3.80;;
36829;SDS011;22767;47.328;9.640;2022-08-23T01:11:02;4.18;;;3.58;;
36829;SDS011;22767;47.328;9.640;2022-08-23T01:13:54;4.22;;;3.83;;
36829;SDS011;22767;47.328;9.640;2022-08-23T01:19:33;4.63;;;3.17;;
36829;SDS011;22767;47.328;9.640;2022-08-23T01:22:23;5.50;;;3.80;;
36829;SDS011;22767;47.328;9.640;2022-08-23T01:25:13;4.82;;;3.75;;
36829;SDS011;22767;47.328;9.640;2022-08-23T01:28:00;4.03;;;3.60;;
36829;SDS011;22767;47.328;9.640;2022-08-23T01:30:47;4.18;;;3.47;;
36829;SDS011;22767;47.328;9.640;2022-08-23T01:33:35;3.75;;;3.35;;
36829;SDS011;22767;47.328;9.640;2022-08-23T01:36:21;4.00;;;3.45;;
36829;SDS011;22767;47.328;9.640;2022-08-23T01:39:08;6.90;;;3.63;;
36829;SDS011;22767;47.328;9.640;2022-08-23T01:41:55;4.68;;;4.28;;
36829;SDS011;22767;47.328;9.640;2022-08-23T01:44:41;4.05;;;3.70;;
36829;SDS011;22767;47.328;9.640;2022-08-23T01:47:28;5.55;;;3.80;;
36829;SDS011;22767;47.328;9.640;2022-08-23T01:50:16;6.00;;;3.67;;
36829;SDS011;22767;47.328;9.640;2022-08-23T01:53:03;4.78;;;3.95;;
36829;SDS011;22767;47.328;9.640;2022-08-23T01:55:49;5.53;;;3.95;;
36829;SDS011;22767;47.328;9.640;2022-08-23T01:58:36;5.97;;;4.00;;
36829;SDS011;22767;47.328;9.640;2022-08-23T02:01:23;5.03;;;3.65;;
36829;SDS011;22767;47.328;9.640;2022-08-23T02:04:10;5.45;;;3.25;;
36829;SDS011;22767;47.328;9.640;2022-08-23T02:06:56;4.05;;;3.15;;
36829;SDS011;22767;47.328;9.640;2022-08-23T02:09:43;3.47;;;3.17;;
36829;SDS011;22767;47.328;9.640;2022-08-23T02:12:29;6.18;;;3.53;;
36829;SDS011;22767;47.328;9.640;2022-08-23T02:15:15;5.32;;;3.97;;
36829;SDS011;22767;47.328;9.640;2022-08-23T02:18:02;5.50;;;3.60;;
36829;SDS011;22767;47.328;9.640;2022-08-23T02:20:49;5.28;;;3.45;;
36829;SDS011;22767;47.328;9.640;2022-08-23T02:23:36;4.38;;;3.92;;
36829;SDS011;22767;47.328;9.640;2022-08-23T02:26:22;4.50;;;3.88;;
36829;SDS011;22767;47.328;9.640;2022-08-23T02:29:09;6.88;;;3.88;;
36829;SDS011;22767;47.328;9.640;2022-08-23T02:31:56;4.97;;;3.83;;
36829;SDS011;22767;47.328;9.640;2022-08-23T02:34:43;4.53;;;3.80;;
36829;SDS011;22767;47.328;9.640;2022-08-23T02:37:30;4.25;;;3.85;;
36829;SDS011;22767;47.328;9.640;2022-08-23T02:40:16;4.90;;;3.50;;
36829;SDS011;22767;47.328;9.640;2022-08-23T02:43:04;4.35;;;3.65;;
36829;SDS011;22767;47.328;9.640;2022-08-23T02:45:50;5.32;;;4.15;;
36829;SDS011;22767;47.328;9.640;2022-08-23T02:48:37;4.05;;;3.67;;
36829;SDS011;22767;47.328;9.640;2022-08-23T02:51:24;4.40;;;3.45;;
36829;SDS011;22767;47.328;9.640;2022-08-23T02:54:11;4.43;;;3.50;;
36829;SDS011;22767;47.328;9.640;2022-08-23T02:56:57;4.72;;;3.88;;
36829;SDS011;22767;47.328;9.640;2022-08-23T02:59:44;4.97;;;3.65;;
36829;SDS011;22767;47.328;9.640;2022-08-23T03:02:30;4.53;;;3.50;;
36829;SDS011;22767;47.328;9.640;2022-08-23T03:05:17;5.90;;;4.07;;
36829;SDS011;22767;47.328;9.640;2022-08-23T03:08:03;4.68;;;3.85;;
36829;SDS011;22767;47.328;9.640;2022-08-23T03:10:50;5.07;;;3.95;;
36829;SDS011;22767;47.328;9.640;2022-08-23T03:13:37;5.00;;;3.90;;
36829;SDS011;22767;47.328;9.640;2022-08-23T03:16:24;5.18;;;3.15;;
36829;SDS011;22767;47.328;9.640;2022-08-23T03:19:10;4.65;;;3.60;;
36829;SDS011;22767;47.328;9.640;2022-08-23T03:21:57;3.80;;;3.40;;
36829;SDS011;22767;47.328;9.640;2022-08-23T03:24:44;5.72;;;3.88;;
36829;SDS011;22767;47.328;9.640;2022-08-23T03:27:31;4.18;;;3.78;;
36829;SDS011;22767;47.328;9.640;2022-08-23T03:30:17;4.72;;;3.83;;
36829;SDS011;22767;47.328;9.640;2022-08-23T03:33:03;5.18;;;3.90;;
36829;SDS011;22767;47.328;9.640;2022-08-23T03:35:50;3.75;;;3.38;;
36829;SDS011;22767;47.328;9.640;2022-08-23T03:38:37;6.13;;;3.70;;
36829;SDS011;22767;47.328;9.640;2022-08-23T03:41:24;4.25;;;3.55;;
36829;SDS011;22767;47.328;9.640;2022-08-23T03:44:11;6.57;;;4.00;;
36829;SDS011;22767;47.328;9.640;2022-08-23T03:46:57;8.40;;;3.88;;
36829;SDS011;22767;47.328;9.640;2022-08-23T03:49:43;4.57;;;3.80;;
36829;SDS011;22767;47.328;9.640;2022-08-23T03:52:30;6.63;;;4.03;;
36829;SDS011;22767;47.328;9.640;2022-08-23T03:55:16;4.22;;;3.83;;
36829;SDS011;22767;47.328;9.640;2022-08-23T03:58:03;4.78;;;4.10;;
36829;SDS011;22767;47.328;9.640;2022-08-23T04:00:49;5.32;;;4.07;;
36829;SDS011;22767;47.328;9.640;2022-08-23T04:03:35;4.60;;;4.07;;
36829;SDS011;22767;47.328;9.640;2022-08-23T04:06:22;4.63;;;3.90;;
36829;SDS011;22767;47.328;9.640;2022-08-23T04:09:08;8.40;;;4.50;;
36829;SDS011;22767;47.328;9.640;2022-08-23T04:11:55;5.57;;;4.22;;
36829;SDS011;22767;47.328;9.640;2022-08-23T04:14:42;5.07;;;4.25;;
36829;SDS011;22767;47.328;9.640;2022-08-23T04:17:29;4.90;;;3.92;;
36829;SDS011;22767;47.328;9.640;2022-08-23T04:20:16;6.88;;;3.70;;
36829;SDS011;22767;47.328;9.640;2022-08-23T04:23:03;5.68;;;4.30;;
36829;SDS011;22767;47.328;9.640;2022-08-23T04:25:50;5.30;;;3.90;;
36829;SDS011;22767;47.328;9.640;2022-08-23T04:28:36;4.63;;;3.88;;
36829;SDS011;22767;47.328;9.640;2022-08-23T04:31:23;5.35;;;3.88;;
36829;SDS011;22767;47.328;9.640;2022-08-23T04:34:10;5.45;;;4.18;;
36829;SDS011;22767;47.328;9.640;2022-08-23T04:36:57;6.47;;;4.28;;
36829;SDS011;22767;47.328;9.640;2022-08-23T04:39:44;7.05;;;4.03;;
36829;SDS011;22767;47.328;9.640;2022-08-23T04:42:49;5.85;;;4.15;;
36829;SDS011;22767;47.328;9.640;2022-08-23T04:45:39;5.07;;;4.05;;
36829;SDS011;22767;47.328;9.640;2022-08-23T04:48:25;6.43;;;4.55;;
36829;SDS011;22767;47.328;9.640;2022-08-23T04:51:12;8.45;;;4.88;;
36829;SDS011;22767;47.328;9.640;2022-08-23T04:53:58;7.18;;;4.90;;
36829;SDS011;22767;47.328;9.640;2022-08-23T04:56:45;6.82;;;4.53;;
36829;SDS011;22767;47.328;9.640;2022-08-23T04:59:31;5.22;;;4.28;;
36829;SDS011;22767;47.328;9.640;2022-08-23T05:02:19;6.13;;;4.60;;
36829;SDS011;22767;47.328;9.640;2022-08-23T05:05:07;4.72;;;4.22;;
36829;SDS011;22767;47.328;9.640;2022-08-23T05:07:54;6.13;;;4.53;;
36829;SDS011;22767;47.328;9.640;2022-08-23T05:10:40;5.22;;;4.55;;
36829;SDS011;22767;47.328;9.640;2022-08-23T05:13:27;6.15;;;4.40;;
36829;SDS011;22767;47.328;9.640;2022-08-23T05:16:13;5.68;;;4.30;;
36829;SDS011;22767;47.328;9.640;2022-08-23T05:19:00;5.63;;;4.43;;
36829;SDS011;22767;47.328;9.640;2022-08-23T05:21:47;5.85;;;4.47;;
36829;SDS011;22767;47.328;9.640;2022-08-23T05:24:33;6.85;;;4.53;;
36829;SDS011;22767;47.328;9.640;2022-08-23T05:27:20;5.97;;;4.53;;
36829;SDS011;22767;47.328;9.640;2022-08-23T05:30:07;4.82;;;4.00;;
36829;SDS011;22767;47.328;9.640;2022-08-23T05:32:53;4.88;;;3.78;;
36829;SDS011;22767;47.328;9.640;2022-08-23T05:35:39;11.98;;;4.95;;
36829;SDS011;22767;47.328;9.640;2022-08-23T05:38:26;8.95;;;4.07;;
36829;SDS011;22767;47.328;9.640;2022-08-23T05:41:13;5.47;;;4.60;;
36829;SDS011;22767;47.328;9.640;2022-08-23T05:43:59;8.05;;;4.20;;
36829;SDS011;22767;47.328;9.640;2022-08-23T05:46:46;8.05;;;4.43;;
36829;SDS011;22767;47.328;9.640;2022-08-23T05:49:33;6.10;;;4.00;;
36829;SDS011;22767;47.328;9.640;2022-08-23T05:52:20;6.47;;;4.30;;
36829;SDS011;22767;47.328;9.640;2022-08-23T05:55:07;5.47;;;4.07;;
36829;SDS011;22767;47.328;9.640;2022-08-23T05:57:53;7.88;;;4.60;;
36829;SDS011;22767;47.328;9.640;2022-08-23T06:00:40;5.40;;;4.50;;
36829;SDS011;22767;47.328;9.640;2022-08-23T06:03:27;5.38;;;4.53;;
36829;SDS011;22767;47.328;9.640;2022-08-23T06:06:14;5.78;;;5.20;;
36829;SDS011;22767;47.328;9.640;2022-08-23T06:09:01;6.40;;;4.28;;
36829;SDS011;22767;47.328;9.640;2022-08-23T06:11:49;7.20;;;4.70;;
36829;SDS011;22767;47.328;9.640;2022-08-23T06:14:35;6.90;;;4.82;;
36829;SDS011;22767;47.328;9.640;2022-08-23T06:17:22;7.15;;;4.63;;
36829;SDS011;22767;47.328;9.640;2022-08-23T06:20:09;5.97;;;4.40;;
36829;SDS011;22767;47.328;9.640;2022-08-23T06:22:55;8.45;;;4.90;;
36829;SDS011;22767;47.328;9.640;2022-08-23T06:25:42;5.32;;;4.68;;
36829;SDS011;22767;47.328;9.640;2022-08-23T06:28:28;5.95;;;3.78;;
36829;SDS011;22767;47.328;9.640;2022-08-23T06:31:16;4.65;;;4.05;;
36829;SDS011;22767;47.328;9.640;2022-08-23T06:34:27;7.28;;;4.20;;
36829;SDS011;22767;47.328;9.640;2022-08-23T06:37:16;5.68;;;4.95;;
36829;SDS011;22767;47.328;9.640;2022-08-23T06:40:03;8.15;;;4.85;;
36829;SDS011;22767;47.328;9.640;2022-08-23T06:42:49;5.13;;;3.72;;
36829;SDS011;22767;47.328;9.640;2022-08-23T06:45:38;4.07;;;3.67;;
36829;SDS011;22767;47.328;9.640;2022-08-23T06:48:24;6.00;;;3.92;;
36829;SDS011;22767;47.328;9.640;2022-08-23T06:51:11;4.72;;;3.92;;
36829;SDS011;22767;47.328;9.640;2022-08-23T06:53:59;6.53;;;3.95;;
36829;SDS011;22767;47.328;9.640;2022-08-23T06:56:46;4.90;;;3.40;;
36829;SDS011;22767;47.328;9.640;2022-08-23T06:59:33;4.72;;;3.78;;
36829;SDS011;22767;47.328;9.640;2022-08-23T07:02:20;3.60;;;3.30;;
36829;SDS011;22767;47.328;9.640;2022-08-23T07:05:06;4.60;;;3.80;;
36829;SDS011;22767;47.328;9.640;2022-08-23T07:07:53;4.78;;;3.40;;
36829;SDS011;22767;47.328;9.640;2022-08-23T07:10:39;4.70;;;3.53;;
36829;SDS011;22767;47.328;9.640;2022-08-23T07:13:27;5.35;;;3.90;;
36829;SDS011;22767;47.328;9.640;2022-08-23T07:16:14;5.35;;;3.58;;
36829;SDS011;22767;47.328;9.640;2022-08-23T07:19:02;5.25;;;3.90;;
36829;SDS011;22767;47.328;9.640;2022-08-23T07:21:49;5.03;;;3.78;;
36829;SDS011;22767;47.328;9.640;2022-08-23T07:24:35;4.45;;;3.33;;
36829;SDS011;22767;47.328;9.640;2022-08-23T07:27:22;6.65;;;3.65;;
36829;SDS011;22767;47.328;9.640;2022-08-23T07:30:08;5.07;;;3.50;;
36829;SDS011;22767;47.328;9.640;2022-08-23T07:32:55;4.22;;;3.47;;
36829;SDS011;22767;47.328;9.640;2022-08-23T07:35:48;6.05;;;3.90;;
36829;SDS011;22767;47.328;9.640;2022-08-23T07:38:34;3.80;;;3.38;;
36829;SDS011;22767;47.328;9.640;2022-08-23T07:41:22;6.47;;;4.22;;
36829;SDS011;22767;47.328;9.640;2022-08-23T07:44:09;8.43;;;4.07;;
36829;SDS011;22767;47.328;9.640;2022-08-23T07:46:57;4.70;;;3.97;;
36829;SDS011;22767;47.328;9.640;2022-08-23T07:49:43;5.40;;;3.97;;
36829;SDS011;22767;47.328;9.640;2022-08-23T07:52:31;7.40;;;3.80;;
36829;SDS011;22767;47.328;9.640;2022-08-23T07:55:17;4.22;;;3.72;;
36829;SDS011;22767;47.328;9.640;2022-08-23T07:58:04;4.50;;;3.35;;
36829;SDS011;22767;47.328;9.640;2022-08-23T08:00:51;4.70;;;3.38;;
36829;SDS011;22767;47.328;9.640;2022-08-23T08:03:38;4.35;;;3.42;;
36829;SDS011;22767;47.328;9.640;2022-08-23T08:09:14;5.30;;;3.38;;
36829;SDS011;22767;47.328;9.640;2022-08-23T08:12:01;4.03;;;3.47;;
36829;SDS011;22767;47.328;9.640;2022-08-23T08:14:47;4.57;;;4.10;;
36829;SDS011;22767;47.328;9.640;2022-08-23T08:17:34;5.05;;;4.00;;
36829;SDS011;22767;47.328;9.640;2022-08-23T08:20:21;5.88;;;3.78;;
36829;SDS011;22767;47.328;9.640;2022-08-23T08:23:07;3.85;;;3.40;;
36829;SDS011;22767;47.328;9.640;2022-08-23T08:26:01;4.47;;;3.83;;
36829;SDS011;22767;47.328;9.640;2022-08-23T08:28:49;6.78;;;3.78;;
36829;SDS011;22767;47.328;9.640;2022-08-23T08:31:37;5.45;;;3.47;;
36829;SDS011;22767;47.328;9.640;2022-08-23T08:34:23;3.95;;;3.25;;
36829;SDS011;22767;47.328;9.640;2022-08-23T08:37:10;5.60;;;3.42;;
36829;SDS011;22767;47.328;9.640;2022-08-23T08:39:57;5.90;;;3.25;;
36829;SDS011;22767;47.328;9.640;2022-08-23T08:45:44;3.63;;;2.92;;
36829;SDS011;22767;47.328;9.640;2022-08-23T08:48:45;4.15;;;2.88;;
36829;SDS011;22767;47.328;9.640;2022-08-23T08:54:23;3.42;;;3.08;;
36829;SDS011;22767;47.328;9.640;2022-08-23T08:57:11;3.42;;;2.95;;
36829;SDS011;22767;47.328;9.640;2022-08-23T09:00:01;6.38;;;3.13;;
36829;SDS011;22767;47.328;9.640;2022-08-23T09:02:48;6.00;;;2.72;;
36829;SDS011;22767;47.328;9.640;2022-08-23T09:05:36;3.60;;;2.95;;
36829;SDS011;22767;47.328;9.640;2022-08-23T09:14:37;3.72;;;3.33;;
36829;SDS011;22767;47.328;9.640;2022-08-23T09:17:43;5.60;;;3.17;;
36829;SDS011;22767;47.328;9.640;2022-08-23T09:20:32;4.90;;;3.40;;
36829;SDS011;22767;47.328;9.640;2022-08-23T09:23:20;4.18;;;3.08;;
36829;SDS011;22767;47.328;9.640;2022-08-23T09:35:14;4.50;;;3.03;;
36829;SDS011;22767;47.328;9.640;2022-08-23T09:38:03;4.20;;;3.08;;
36829;SDS011;22767;47.328;9.640;2022-08-23T09:40:55;4.22;;;3.10;;
36829;SDS011;22767;47.328;9.640;2022-08-23T09:43:43;5.05;;;3.30;;
36829;SDS011;22767;47.328;9.640;2022-08-23T09:46:33;4.30;;;2.95;;
36829;SDS011;22767;47.328;9.640;2022-08-23T09:49:24;3.30;;;2.90;;
36829;SDS011;22767;47.328;9.640;2022-08-23T09:52:21;3.35;;;2.95;;
36829;SDS011;22767;47.328;9.640;2022-08-23T09:55:24;7.35;;;3.72;;
36829;SDS011;22767;47.328;9.640;2022-08-23T09:58:30;4.32;;;2.75;;
36829;SDS011;22767;47.328;9.640;2022-08-23T10:06:54;4.75;;;2.85;;
36829;SDS011;22767;47.328;9.640;2022-08-23T10:09:41;2.60;;;2.35;;
36829;SDS011;22767;47.328;9.640;2022-08-23T10:12:28;5.88;;;2.95;;
36829;SDS011;22767;47.328;9.640;2022-08-23T10:15:14;6.05;;;2.70;;
36829;SDS011;22767;47.328;9.640;2022-08-23T10:18:04;3.75;;;2.75;;
36829;SDS011;22767;47.328;9.640;2022-08-23T10:30:14;6.57;;;3.08;;
36829;SDS011;22767;47.328;9.640;2022-08-23T10:38:57;4.22;;;2.83;;
36829;SDS011;22767;47.328;9.640;2022-08-23T10:42:02;3.17;;;2.50;;
36829;SDS011;22767;47.328;9.640;2022-08-23T10:48:19;3.90;;;2.83;;
36829;SDS011;22767;47.328;9.640;2022-08-23T10:51:00;5.40;;;2.75;;
36829;SDS011;22767;47.328;9.640;2022-08-23T10:53:56;6.18;;;3.00;;
36829;SDS011;22767;47.328;9.640;2022-08-23T10:56:44;3.88;;;2.90;;
36829;SDS011;22767;47.328;9.640;2022-08-23T10:59:31;4.85;;;3.58;;
36829;SDS011;22767;47.328;9.640;2022-08-23T11:05:16;6.85;;;3.38;;
36829;SDS011;22767;47.328;9.640;2022-08-23T11:08:04;3.25;;;3.00;;
36829;SDS011;22767;47.328;9.640;2022-08-23T11:10:50;4.10;;;2.78;;
36829;SDS011;22767;47.328;9.640;2022-08-23T11:13:37;4.43;;;3.40;;
36829;SDS011;22767;47.328;9.640;2022-08-23T11:16:25;3.83;;;2.78;;
36829;SDS011;22767;47.328;9.640;2022-08-23T11:19:19;3.97;;;3.28;;
36829;SDS011;22767;47.328;9.640;2022-08-23T11:22:22;7.32;;;3.10;;
36829;SDS011;22767;47.328;9.640;2022-08-23T11:34:25;3.17;;;2.65;;
36829;SDS011;22767;47.328;9.640;2022-08-23T11:40:09;4.60;;;2.70;;
36829;SDS011;22767;47.328;9.640;2022-08-23T11:42:56;4.75;;;2.70;;
36829;SDS011;22767;47.328;9.640;2022-08-23T11:45:48;3.85;;;2.53;;
36829;SDS011;22767;47.328;9.640;2022-08-23T11:48:39;2.58;;;2.38;;
36829;SDS011;22767;47.328;9.640;2022-08-23T11:51:35;2.77;;;2.47;;
36829;SDS011;22767;47.328;9.640;2022-08-23T12:03:19;3.75;;;2.42;;
36829;SDS011;22767;47.328;9.640;2022-08-23T12:06:10;2.88;;;2.08;;
36829;SDS011;22767;47.328;9.640;2022-08-23T12:08:58;4.63;;;2.35;;
36829;SDS011;22767;47.328;9.640;2022-08-23T12:20:19;2.83;;;2.08;;
36829;SDS011;22767;47.328;9.640;2022-08-23T12:23:12;3.20;;;1.85;;
36829;SDS011;22767;47.328;9.640;2022-08-23T12:25:59;4.78;;;2.03;;
36829;SDS011;22767;47.328;9.640;2022-08-23T12:28:50;5.82;;;2.03;;
36829;SDS011;22767;47.328;9.640;2022-08-23T12:31:59;4.32;;;2.10;;
36829;SDS011;22767;47.328;9.640;2022-08-23T12:40:56;2.97;;;2.17;;
36829;SDS011;22767;47.328;9.640;2022-08-23T12:43:35;4.72;;;1.90;;
36829;SDS011;22767;47.328;9.640;2022-08-23T12:46:29;2.33;;;1.77;;
36829;SDS011;22767;47.328;9.640;2022-08-23T12:49:30;2.50;;;1.70;;
36829;SDS011;22767;47.328;9.640;2022-08-23T12:52:22;2.88;;;1.80;;
36829;SDS011;22767;47.328;9.640;2022-08-23T12:55:13;2.53;;;1.63;;
36829;SDS011;22767;47.328;9.640;2022-08-23T12:58:00;2.80;;;1.70;;
36829;SDS011;22767;47.328;9.640;2022-08-23T13:00:51;2.65;;;1.70;;
36829;SDS011;22767;47.328;9.640;2022-08-23T13:03:39;4.65;;;1.55;;
36829;SDS011;22767;47.328;9.640;2022-08-23T13:07:14;3.10;;;1.40;;
36829;SDS011;22767;47.328;9.640;2022-08-23T13:09:38;2.58;;;1.50;;
36829;SDS011;22767;47.328;9.640;2022-08-23T13:12:25;2.08;;;1.38;;
36829;SDS011;22767;47.328;9.640;2022-08-23T13:15:36;2.50;;;1.27;;
36829;SDS011;22767;47.328;9.640;2022-08-23T13:19:08;2.55;;;1.50;;
36829;SDS011;22767;47.328;9.640;2022-08-23T13:21:30;2.03;;;1.30;;
36829;SDS011;22767;47.328;9.640;2022-08-23T13:24:27;2.92;;;1.50;;
36829;SDS011;22767;47.328;9.640;2022-08-23T13:33:16;3.10;;;1.30;;
36829;SDS011;22767;47.328;9.640;2022-08-23T13:39:17;2.33;;;1.10;;
36829;SDS011;22767;47.328;9.640;2022-08-23T13:42:03;3.60;;;1.30;;
36829;SDS011;22767;47.328;9.640;2022-08-23T13:44:50;2.03;;;1.23;;
36829;SDS011;22767;47.328;9.640;2022-08-23T13:47:36;3.17;;;1.45;;
36829;SDS011;22767;47.328;9.640;2022-08-23T13:50:30;1.67;;;1.10;;
36829;SDS011;22767;47.328;9.640;2022-08-23T13:53:17;1.35;;;1.10;;
36829;SDS011;22767;47.328;9.640;2022-08-23T13:56:04;2.45;;;1.17;;
36829;SDS011;22767;47.328;9.640;2022-08-23T13:58:57;3.13;;;1.30;;
36829;SDS011;22767;47.328;9.640;2022-08-23T14:01:44;2.17;;;1.40;;
36829;SDS011;22767;47.328;9.640;2022-08-23T14:04:31;4.60;;;1.20;;
36829;SDS011;22767;47.328;9.640;2022-08-23T14:07:18;2.30;;;1.13;;
36829;SDS011;22767;47.328;9.640;2022-08-23T14:10:04;1.95;;;1.05;;
36829;SDS011;22767;47.328;9.640;2022-08-23T14:12:51;4.43;;;1.10;;
36829;SDS011;22767;47.328;9.640;2022-08-23T14:15:39;2.22;;;1.15;;
36829;SDS011;22767;47.328;9.640;2022-08-23T14:18:25;2.00;;;1.15;;
36829;SDS011;22767;47.328;9.640;2022-08-23T14:21:12;3.45;;;1.20;;
36829;SDS011;22767;47.328;9.640;2022-08-23T14:23:58;3.88;;;1.10;;
36829;SDS011;22767;47.328;9.640;2022-08-23T14:26:45;2.03;;;1.20;;
36829;SDS011;22767;47.328;9.640;2022-08-23T14:29:31;1.83;;;1.10;;
36829;SDS011;22767;47.328;9.640;2022-08-23T14:32:18;1.92;;;1.10;;
36829;SDS011;22767;47.328;9.640;2022-08-23T14:35:05;1.67;;;1.15;;
36829;SDS011;22767;47.328;9.640;2022-08-23T14:37:52;1.67;;;0.85;;
36829;SDS011;22767;47.328;9.640;2022-08-23T14:40:38;3.03;;;1.30;;
36829;SDS011;22767;47.328;9.640;2022-08-23T14:43:25;1.88;;;1.05;;
36829;SDS011;22767;47.328;9.640;2022-08-23T14:46:11;2.13;;;1.35;;
36829;SDS011;22767;47.328;9.640;2022-08-23T14:48:57;2.42;;;1.10;;
36829;SDS011;22767;47.328;9.640;2022-08-23T14:51:44;1.45;;;0.90;;
36829;SDS011;22767;47.328;9.640;2022-08-23T14:54:31;2.50;;;1.00;;
36829;SDS011;22767;47.328;9.640;2022-08-23T14:57:18;2.72;;;1.13;;
36829;SDS011;22767;47.328;9.640;2022-08-23T15:00:05;2.15;;;0.90;;
36829;SDS011;22767;47.328;9.640;2022-08-23T15:02:53;1.10;;;1.00;;
36829;SDS011;22767;47.328;9.640;2022-08-23T15:05:39;2.42;;;1.17;;
36829;SDS011;22767;47.328;9.640;2022-08-23T15:08:26;3.38;;;1.00;;
36829;SDS011;22767;47.328;9.640;2022-08-23T15:11:12;1.63;;;1.10;;
36829;SDS011;22767;47.328;9.640;2022-08-23T15:13:59;1.40;;;0.95;;
36829;SDS011;22767;47.328;9.640;2022-08-23T15:16:46;2.20;;;1.17;;
36829;SDS011;22767;47.328;9.640;2022-08-23T15:19:32;3.47;;;1.00;;
36829;SDS011;22767;47.328;9.640;2022-08-23T15:22:19;3.75;;;1.00;;
36829;SDS011;22767;47.328;9.640;2022-08-23T15:25:06;2.25;;;1.00;;
36829;SDS011;22767;47.328;9.640;2022-08-23T15:27:52;2.10;;;1.15;;
36829;SDS011;22767;47.328;9.640;2022-08-23T15:30:39;2.42;;;1.05;;
36829;SDS011;22767;47.328;9.640;2022-08-23T15:33:26;2.42;;;1.20;;
36829;SDS011;22767;47.328;9.640;2022-08-23T15:36:14;1.92;;;1.15;;
36829;SDS011;22767;47.328;9.640;2022-08-23T15:39:00;2.30;;;0.80;;
36829;SDS011;22767;47.328;9.640;2022-08-23T15:41:47;2.67;;;1.20;;
36829;SDS011;22767;47.328;9.640;2022-08-23T15:44:33;3.35;;;1.17;;
36829;SDS011;22767;47.328;9.640;2022-08-23T15:47:24;2.75;;;1.10;;
36829;SDS011;22767;47.328;9.640;2022-08-23T15:50:11;1.20;;;1.10;;
36829;SDS011;22767;47.328;9.640;2022-08-23T15:52:58;3.50;;;1.45;;
36829;SDS011;22767;47.328;9.640;2022-08-23T15:55:45;2.40;;;1.40;;
36829;SDS011;22767;47.328;9.640;2022-08-23T15:58:31;2.60;;;1.50;;
36829;SDS011;22767;47.328;9.640;2022-08-23T16:01:18;3.85;;;1.40;;
36829;SDS011;22767;47.328;9.640;2022-08-23T16:04:07;1.60;;;1.00;;
36829;SDS011;22767;47.328;9.640;2022-08-23T16:06:54;1.40;;;1.15;;
36829;SDS011;22767;47.328;9.640;2022-08-23T16:09:40;1.42;;;1.10;;
36829;SDS011;22767;47.328;9.640;2022-08-23T16:12:27;4.40;;;1.10;;
36829;SDS011;22767;47.328;9.640;2022-08-23T16:15:13;1.83;;;1.10;;
36829;SDS011;22767;47.328;9.640;2022-08-23T16:17:59;1.95;;;1.27;;
36829;SDS011;22767;47.328;9.640;2022-08-23T16:20:46;1.55;;;0.98;;
36829;SDS011;22767;47.328;9.640;2022-08-23T16:23:32;3.00;;;1.00;;
36829;SDS011;22767;47.328;9.640;2022-08-23T16:26:20;2.67;;;1.10;;
36829;SDS011;22767;47.328;9.640;2022-08-23T16:29:07;1.55;;;1.00;;
36829;SDS011;22767;47.328;9.640;2022-08-23T16:31:54;1.15;;;0.90;;
36829;SDS011;22767;47.328;9.640;2022-08-23T16:34:40;2.72;;;1.00;;
36829;SDS011;22767;47.328;9.640;2022-08-23T16:37:27;1.77;;;1.10;;
36829;SDS011;22767;47.328;9.640;2022-08-23T16:40:13;6.72;;;1.42;;
36829;SDS011;22767;47.328;9.640;2022-08-23T16:43:00;1.90;;;1.10;;
36829;SDS011;22767;47.328;9.640;2022-08-23T16:45:47;1.65;;;1.08;;
36829;SDS011;22767;47.328;9.640;2022-08-23T16:48:34;4.20;;;1.20;;
36829;SDS011;22767;47.328;9.640;2022-08-23T16:51:20;2.83;;;1.05;;
36829;SDS011;22767;47.328;9.640;2022-08-23T16:54:07;1.67;;;0.88;;
36829;SDS011;22767;47.328;9.640;2022-08-23T16:56:53;1.67;;;0.80;;
36829;SDS011;22767;47.328;9.640;2022-08-23T16:59:40;1.00;;;0.90;;
36829;SDS011;22767;47.328;9.640;2022-08-23T17:02:28;3.10;;;0.90;;
36829;SDS011;22767;47.328;9.640;2022-08-23T17:05:15;2.10;;;1.20;;
36829;SDS011;22767;47.328;9.640;2022-08-23T17:08:03;6.78;;;1.23;;
36829;SDS011;22767;47.328;9.640;2022-08-23T17:10:49;1.23;;;0.80;;
36829;SDS011;22767;47.328;9.640;2022-08-23T17:13:36;2.28;;;1.08;;
36829;SDS011;22767;47.328;9.640;2022-08-23T17:16:22;1.73;;;1.10;;
36829;SDS011;22767;47.328;9.640;2022-08-23T17:19:09;4.65;;;1.38;;
36829;SDS011;22767;47.328;9.640;2022-08-23T17:21:56;1.38;;;0.77;;
36829;SDS011;22767;47.328;9.640;2022-08-23T17:24:45;0.93;;;0.93;;
36829;SDS011;22767;47.328;9.640;2022-08-23T17:27:32;1.38;;;0.93;;
36829;SDS011;22767;47.328;9.640;2022-08-23T17:30:19;3.47;;;1.15;;
36829;SDS011;22767;47.328;9.640;2022-08-23T17:33:06;2.95;;;1.20;;
36829;SDS011;22767;47.328;9.640;2022-08-23T17:35:53;1.75;;;1.20;;
36829;SDS011;22767;47.328;9.640;2022-08-23T17:38:39;4.28;;;1.40;;
36829;SDS011;22767;47.328;9.640;2022-08-23T17:41:26;3.63;;;1.25;;
36829;SDS011;22767;47.328;9.640;2022-08-23T17:44:13;2.05;;;1.15;;
36829;SDS011;22767;47.328;9.640;2022-08-23T17:46:59;3.40;;;0.90;;
36829;SDS011;22767;47.328;9.640;2022-08-23T17:49:46;2.67;;;1.10;;
36829;SDS011;22767;47.328;9.640;2022-08-23T17:52:33;2.22;;;1.30;;
36829;SDS011;22767;47.328;9.640;2022-08-23T17:55:20;1.60;;;1.25;;
36829;SDS011;22767;47.328;9.640;2022-08-23T17:58:07;3.10;;;1.50;;
36829;SDS011;22767;47.328;9.640;2022-08-23T18:00:54;3.70;;;1.80;;
36829;SDS011;22767;47.328;9.640;2022-08-23T18:03:40;3.53;;;2.38;;
36829;SDS011;22767;47.328;9.640;2022-08-23T18:06:26;3.55;;;2.50;;
36829;SDS011;22767;47.328;9.640;2022-08-23T18:09:13;3.85;;;1.30;;
36829;SDS011;22767;47.328;9.640;2022-08-23T18:12:00;3.55;;;2.17;;
36829;SDS011;22767;47.328;9.640;2022-08-23T18:14:46;4.65;;;2.10;;
36829;SDS011;22767;47.328;9.640;2022-08-23T18:17:33;2.97;;;1.90;;
36829;SDS011;22767;47.328;9.640;2022-08-23T18:20:19;4.35;;;1.30;;
36829;SDS011;22767;47.328;9.640;2022-08-23T18:23:06;6.50;;;2.42;;
36829;SDS011;22767;47.328;9.640;2022-08-23T18:25:52;3.55;;;1.80;;
36829;SDS011;22767;47.328;9.640;2022-08-23T18:28:39;3.15;;;1.55;;
36829;SDS011;22767;47.328;9.640;2022-08-23T18:31:26;1.55;;;1.42;;
36829;SDS011;22767;47.328;9.640;2022-08-23T18:34:12;3.72;;;1.40;;
36829;SDS011;22767;47.328;9.640;2022-08-23T18:36:59;1.42;;;1.10;;